createdAt,value
2018-08-04T00:00:12.583Z,41.70
2018-08-04T00:02:40.970Z,41.70
2018-08-04T00:05:10.622Z,41.50
2018-08-04T00:07:39.510Z,41.50
2018-08-04T00:10:20.809Z,41.60
2018-08-04T00:12:50.322Z,41.50
2018-08-04T00:15:18.845Z,41.60
2018-08-04T00:17:47.986Z,41.80
2018-08-04T00:20:16.780Z,41.60
2018-08-04T00:22:45.305Z,41.50
2018-08-04T00:25:14.499Z,41.50
2018-08-04T00:27:42.827Z,41.40
2018-08-04T00:30:13.867Z,41.10
2018-08-04T00:32:43.282Z,40.60
2018-08-04T00:35:12.083Z,40.30
2018-08-04T00:37:40.563Z,40.00
2018-08-04T00:40:12.950Z,39.90
2018-08-04T00:42:42.118Z,39.70
2018-08-04T00:45:10.398Z,39.60
2018-08-04T00:47:39.058Z,39.20
2018-08-04T00:50:08.349Z,38.90
2018-08-04T00:52:46.926Z,38.30
2018-08-04T00:55:15.341Z,37.80
2018-08-04T00:57:43.675Z,37.60
2018-08-04T01:00:12.286Z,37.80
2018-08-04T01:02:40.530Z,38.70
2018-08-04T01:05:09.098Z,39.20
2018-08-04T01:07:37.414Z,39.40
2018-08-04T01:10:05.911Z,39.50
2018-08-04T01:12:34.651Z,39.40
2018-08-04T01:15:03.484Z,39.40
2018-08-04T01:17:32.128Z,39.60
2018-08-04T01:20:04.366Z,40.10
2018-08-04T01:22:33.806Z,40.30
2018-08-04T01:25:02.248Z,40.20
2018-08-04T01:27:30.828Z,40.30
2018-08-04T01:29:59.223Z,40.70
2018-08-04T01:32:27.454Z,41.10
2018-08-04T01:34:55.816Z,41.40
2018-08-04T01:37:24.051Z,41.40
2018-08-04T01:39:52.767Z,41.60
2018-08-04T01:42:21.119Z,41.70
2018-08-04T01:44:49.687Z,41.80
2018-08-04T01:47:18.342Z,41.70
2018-08-04T01:49:46.971Z,41.70
2018-08-04T01:52:15.384Z,41.70
2018-08-04T01:54:43.799Z,41.90
2018-08-04T01:57:12.719Z,42.10
2018-08-04T01:59:41.113Z,42.30
2018-08-04T02:02:09.305Z,42.70
2018-08-04T02:04:37.652Z,42.90
2018-08-04T02:07:06.345Z,43.60
2018-08-04T02:09:34.614Z,42.80
2018-08-04T02:14:31.782Z,42.70
2018-08-04T02:17:00.135Z,42.70
2018-08-04T02:19:28.525Z,42.70
2018-08-04T02:21:56.953Z,42.70
2018-08-04T02:26:53.408Z,42.40
2018-08-04T02:31:49.895Z,42.10
2018-08-04T02:34:18.407Z,42.00
2018-08-04T02:36:46.756Z,42.10
2018-08-04T02:39:15.053Z,42.30
2018-08-04T02:41:43.438Z,42.40
2018-08-04T02:44:11.969Z,42.40
2018-08-04T02:46:41.116Z,42.70
2018-08-04T02:49:09.896Z,42.50
2018-08-04T02:51:38.347Z,43.20
2018-08-04T02:54:06.985Z,43.30
2018-08-04T02:56:35.270Z,43.50
2018-08-04T02:59:05.011Z,43.80
2018-08-04T03:01:33.480Z,44.00
2018-08-04T03:04:02.080Z,44.30
2018-08-04T03:06:30.368Z,44.70
2018-08-04T03:08:58.727Z,45.10
2018-08-04T03:11:27.476Z,45.40
2018-08-04T03:13:56.048Z,45.80
2018-08-04T03:16:24.280Z,46.20
2018-08-04T03:18:52.522Z,46.60
2018-08-04T03:21:20.765Z,47.10
2018-08-04T03:23:49.355Z,47.30
2018-08-04T03:26:17.880Z,47.50
2018-08-04T03:28:46.209Z,47.80
2018-08-04T03:31:14.503Z,48.10
2018-08-04T03:33:43.447Z,48.20
2018-08-04T03:36:11.866Z,48.30
2018-08-04T03:38:41.412Z,48.40
2018-08-04T03:41:10.306Z,48.70
2018-08-04T03:46:06.759Z,49.60
2018-08-04T03:48:35.014Z,50.20
2018-08-04T03:51:03.348Z,51.10
2018-08-04T03:53:31.676Z,52.80
2018-08-04T03:55:59.905Z,55.60
2018-08-04T03:58:28.207Z,57.10
2018-08-04T04:00:57.295Z,58.30
2018-08-04T04:03:25.868Z,59.20
2018-08-04T04:05:54.227Z,59.60
2018-08-04T04:08:22.674Z,60.20
2018-08-04T04:10:51.026Z,60.20
2018-08-04T04:13:19.399Z,60.10
2018-08-04T04:15:47.793Z,60.20
2018-08-04T04:18:16.231Z,60.00
2018-08-04T04:20:44.557Z,59.90
2018-08-04T04:23:12.814Z,59.60
2018-08-04T04:25:41.060Z,59.40
2018-08-04T04:28:09.431Z,59.20
2018-08-04T04:30:37.702Z,59.00
2018-08-04T04:33:06.331Z,58.50
2018-08-04T04:35:34.631Z,58.20
2018-08-04T04:38:02.874Z,57.90
2018-08-04T04:40:31.091Z,57.80
2018-08-04T04:42:59.434Z,58.10
2018-08-04T04:45:27.975Z,57.40
2018-08-04T04:47:57.272Z,57.30
2018-08-04T04:50:25.607Z,57.10
2018-08-04T04:52:54.022Z,57.00
2018-08-04T04:55:24.194Z,57.00
2018-08-04T04:57:52.433Z,56.90
2018-08-04T05:00:20.722Z,56.80
2018-08-04T05:02:49.165Z,56.90
2018-08-04T05:05:17.507Z,56.60
2018-08-04T05:07:45.798Z,56.50
2018-08-04T05:10:14.436Z,56.50
2018-08-04T05:12:42.731Z,56.60
2018-08-04T05:15:11.032Z,56.60
2018-08-04T05:17:39.358Z,57.40
2018-08-04T05:20:07.846Z,56.80
2018-08-04T05:22:36.671Z,56.80
2018-08-04T05:25:05.571Z,57.00
2018-08-04T05:27:33.813Z,57.30
2018-08-04T05:30:02.674Z,57.40
2018-08-04T05:32:30.910Z,57.60
2018-08-04T05:34:59.502Z,58.30
2018-08-04T05:37:27.862Z,57.90
2018-08-04T05:40:02.326Z,58.10
2018-08-04T05:42:45.446Z,58.20
2018-08-04T05:45:13.795Z,58.40
2018-08-04T05:47:42.432Z,58.40
2018-08-04T05:52:39.234Z,58.80
2018-08-04T05:55:07.626Z,58.80
2018-08-04T05:57:35.835Z,58.80
2018-08-04T06:00:05.935Z,58.70
2018-08-04T06:02:34.479Z,58.70
2018-08-04T06:05:02.919Z,58.50
2018-08-04T06:07:31.412Z,58.30
2018-08-04T06:09:59.762Z,58.40
2018-08-04T06:12:28.278Z,58.50
2018-08-04T06:14:56.670Z,58.40
2018-08-04T06:17:25.169Z,58.40
2018-08-04T06:19:53.951Z,58.60
2018-08-04T06:22:22.340Z,58.70
2018-08-04T06:24:50.715Z,58.70
2018-08-04T06:27:19.458Z,58.70
2018-08-04T06:38:40.134Z,57.80
2018-08-04T06:41:09.078Z,57.80
2018-08-04T06:46:29.100Z,57.90
2018-08-04T06:48:59.497Z,57.80
2018-08-04T06:51:29.003Z,57.80
2018-08-04T06:53:59.588Z,57.60
2018-08-04T06:56:30.458Z,57.50
2018-08-04T06:59:01.019Z,57.30
2018-08-04T07:01:31.167Z,56.90
2018-08-04T07:03:59.827Z,56.60
2018-08-04T07:06:28.714Z,56.00
2018-08-04T07:08:57.615Z,55.80
2018-08-04T07:11:26.344Z,55.70
2018-08-04T07:13:54.699Z,55.40
2018-08-04T07:16:23.235Z,55.40
2018-08-04T07:18:51.762Z,55.40
2018-08-04T07:21:20.244Z,55.70
2018-08-04T07:28:45.531Z,55.20
2018-08-04T07:31:14.055Z,54.90
2018-08-04T07:33:42.480Z,54.60
2018-08-04T07:36:10.915Z,54.40
2018-08-04T07:38:40.167Z,54.30
2018-08-04T07:41:10.016Z,53.90
2018-08-04T07:43:44.149Z,53.70
2018-08-04T07:46:12.910Z,53.40
2018-08-04T07:51:20.301Z,53.40
2018-08-04T07:54:19.142Z,53.80
2018-08-04T07:56:47.390Z,53.90
2018-08-04T07:59:16.656Z,54.10
2018-08-04T08:01:44.985Z,54.20
2018-08-04T08:04:15.798Z,54.40
2018-08-04T08:06:45.311Z,54.40
2018-08-04T08:09:18.565Z,54.50
2018-08-04T08:11:48.569Z,54.60
2018-08-04T08:14:17.343Z,54.60
2018-08-04T08:16:45.755Z,54.60
2018-08-04T08:19:17.053Z,54.40
2018-08-04T08:21:46.194Z,54.30
2018-08-04T08:24:14.773Z,54.10
2018-08-04T08:26:45.095Z,53.90
2018-08-04T08:29:13.392Z,53.90
2018-08-04T08:31:42.911Z,53.80
2018-08-04T08:34:12.678Z,53.50
2018-08-04T08:39:14.665Z,52.30
2018-08-04T08:41:48.897Z,51.60
2018-08-04T08:44:17.984Z,51.20
2018-08-04T08:46:46.475Z,50.80
2018-08-04T08:49:15.039Z,50.30
2018-08-04T08:51:47.423Z,50.10
2018-08-04T08:54:21.564Z,49.90
2018-08-04T08:56:49.898Z,49.70
2018-08-04T08:59:18.480Z,49.50
2018-08-04T09:01:47.223Z,49.20
2018-08-04T09:04:16.615Z,48.90
2018-08-04T09:06:46.574Z,49.00
2018-08-04T09:09:15.747Z,48.30
2018-08-04T09:11:44.418Z,48.50
2018-08-04T09:14:14.269Z,48.40
2018-08-04T09:16:42.691Z,48.40
2018-08-04T09:19:11.666Z,48.30
2018-08-04T09:21:40.389Z,48.40
2018-08-04T09:24:09.428Z,48.30
2018-08-04T09:26:38.605Z,48.00
2018-08-04T09:29:11.435Z,47.60
2018-08-04T09:31:39.950Z,47.50
2018-08-04T09:34:08.382Z,47.30
2018-08-04T09:36:36.961Z,46.70
2018-08-04T09:39:09.409Z,46.30
2018-08-04T09:41:39.727Z,46.50
2018-08-04T09:44:08.344Z,46.50
2018-08-04T09:46:37.723Z,46.50
2018-08-04T09:49:07.093Z,46.50
2018-08-04T09:51:36.111Z,46.40
2018-08-04T09:54:04.662Z,46.10
2018-08-04T09:56:36.685Z,45.40
2018-08-04T09:59:05.090Z,45.30
2018-08-04T10:01:38.095Z,45.20
2018-08-04T10:04:06.966Z,45.40
2018-08-04T10:06:35.286Z,45.40
2018-08-04T10:09:05.526Z,45.40
2018-08-04T10:11:34.631Z,45.60
2018-08-04T10:14:03.102Z,45.90
2018-08-04T10:18:59.328Z,46.20
2018-08-04T10:24:17.364Z,45.30
2018-08-04T10:26:46.606Z,44.90
2018-08-04T10:29:14.947Z,44.80
2018-08-04T10:31:48.464Z,44.60
2018-08-04T10:34:22.268Z,44.50
2018-08-04T10:36:50.595Z,44.40
2018-08-04T10:39:21.438Z,44.10
2018-08-04T10:41:49.973Z,44.10
2018-08-04T10:44:19.296Z,44.90
2018-08-04T10:46:47.620Z,45.00
2018-08-04T10:49:15.918Z,44.90
2018-08-04T10:51:45.032Z,45.10
2018-08-04T10:54:13.454Z,45.20
2018-08-04T10:56:41.790Z,45.30
2018-08-04T10:59:12.731Z,45.00
2018-08-04T11:01:41.312Z,45.00
2018-08-04T11:04:09.583Z,45.20
2018-08-04T11:06:37.943Z,45.00
2018-08-04T11:09:08.699Z,45.00
2018-08-04T11:11:37.046Z,45.00
2018-08-04T11:14:06.058Z,45.10
2018-08-04T11:16:34.562Z,45.00
2018-08-04T11:19:03.835Z,45.00
2018-08-04T11:21:32.104Z,45.20
2018-08-04T11:24:00.582Z,45.60
2018-08-04T11:26:28.958Z,45.60
2018-08-04T11:28:58.308Z,45.90
2018-08-04T11:31:26.607Z,46.20
2018-08-04T11:33:54.901Z,45.80
2018-08-04T11:36:23.212Z,45.70
2018-08-04T11:38:51.451Z,45.50
2018-08-04T11:41:19.732Z,45.60
2018-08-04T11:43:48.114Z,45.30
2018-08-04T11:46:16.423Z,44.50
2018-08-04T11:51:14.146Z,45.80
2018-08-04T11:53:43.015Z,45.20
2018-08-04T11:56:11.386Z,45.50
2018-08-04T12:01:09.054Z,46.20
2018-08-04T12:03:37.458Z,46.00
2018-08-04T12:06:06.390Z,44.90
2018-08-04T12:08:35.357Z,44.70
2018-08-04T12:11:03.783Z,44.50
2018-08-04T12:13:32.098Z,44.50
2018-08-04T12:16:00.449Z,44.20
2018-08-04T12:18:28.700Z,44.00
2018-08-04T12:20:56.988Z,43.60
2018-08-04T12:23:25.215Z,43.10
2018-08-04T12:25:53.575Z,42.70
2018-08-04T12:28:21.975Z,43.00
2018-08-04T12:30:50.888Z,43.10
2018-08-04T12:33:25.074Z,43.10
2018-08-04T12:35:53.862Z,43.00
2018-08-04T12:38:22.271Z,43.30
2018-08-04T12:40:50.516Z,43.60
2018-08-04T12:43:20.294Z,44.10
2018-08-04T12:45:48.618Z,44.90
2018-08-04T12:48:18.450Z,44.90
2018-08-04T12:50:47.437Z,44.90
2018-08-04T12:53:15.690Z,44.50
2018-08-04T12:55:44.808Z,44.50
2018-08-04T12:58:13.079Z,44.70
2018-08-04T13:00:41.321Z,45.50
2018-08-04T13:03:11.432Z,45.90
2018-08-04T13:05:40.823Z,46.10
2018-08-04T13:08:09.371Z,46.40
2018-08-04T13:10:37.691Z,46.40
2018-08-04T13:13:06.043Z,46.40
2018-08-04T13:15:34.308Z,46.60
2018-08-04T13:20:31.012Z,46.50
2018-08-04T13:22:59.318Z,46.60
2018-08-04T13:25:27.815Z,46.70
2018-08-04T13:30:24.840Z,47.10
2018-08-04T13:32:53.919Z,46.80
2018-08-04T13:35:22.977Z,45.00
2018-08-04T13:37:52.244Z,44.10
2018-08-04T13:40:22.623Z,44.00
2018-08-04T13:42:51.961Z,43.00
2018-08-04T13:45:20.096Z,44.20
2018-08-04T13:47:49.902Z,44.90
2018-08-04T13:50:18.742Z,45.70
2018-08-04T13:52:47.007Z,45.80
2018-08-04T13:55:19.379Z,46.30
2018-08-04T13:57:47.938Z,46.80
2018-08-04T14:00:16.821Z,47.50
2018-08-04T14:02:45.610Z,47.50
2018-08-04T14:05:15.924Z,47.10
2018-08-04T14:07:44.215Z,47.60
2018-08-04T14:10:12.997Z,47.10
2018-08-04T14:12:44.679Z,47.20
2018-08-04T14:15:14.663Z,47.60
2018-08-04T14:17:43.083Z,47.60
2018-08-04T14:20:12.630Z,47.50
2018-08-04T14:22:44.025Z,47.80
2018-08-04T14:25:12.388Z,48.40
2018-08-04T14:27:40.661Z,48.40
2018-08-04T14:30:10.350Z,47.90
2018-08-04T14:32:39.835Z,47.50
2018-08-04T14:35:08.264Z,45.90
2018-08-04T14:37:42.969Z,44.90
2018-08-04T14:40:11.407Z,44.60
2018-08-04T14:42:41.794Z,44.10
2018-08-04T14:45:10.106Z,44.20
2018-08-04T14:47:52.933Z,43.70
2018-08-04T14:50:21.914Z,43.70
2018-08-04T14:52:51.270Z,43.90
2018-08-04T14:55:20.677Z,43.90
2018-08-04T14:57:48.934Z,44.40
2018-08-04T15:00:32.226Z,45.00
2018-08-04T15:03:10.956Z,45.10
2018-08-04T15:05:39.842Z,46.70
2018-08-04T15:08:08.794Z,46.20
2018-08-04T15:10:38.344Z,44.80
2018-08-04T15:13:06.838Z,43.50
2018-08-04T15:15:35.395Z,42.60
2018-08-04T15:18:05.023Z,41.20
2018-08-04T15:23:02.239Z,39.40
2018-08-04T15:25:30.969Z,38.00
2018-08-04T15:28:02.015Z,36.70
2018-08-04T15:30:31.411Z,36.30
2018-08-04T15:32:59.861Z,35.80
2018-08-04T15:35:28.520Z,35.30
2018-08-04T15:37:57.619Z,34.40
2018-08-04T15:40:26.204Z,33.90
2018-08-04T15:43:00.967Z,33.50
2018-08-04T15:45:30.659Z,33.20
2018-08-04T15:48:01.751Z,32.70
2018-08-04T15:50:32.313Z,32.30
2018-08-04T15:53:05.942Z,32.40
2018-08-04T15:55:34.970Z,32.30
2018-08-04T15:58:04.089Z,31.60
2018-08-04T16:00:33.124Z,31.50
2018-08-04T16:03:02.645Z,31.40
2018-08-04T16:05:31.428Z,31.10
2018-08-04T16:08:03.043Z,31.10
2018-08-04T16:10:33.603Z,31.30
2018-08-04T16:13:02.840Z,30.80
2018-08-04T16:15:31.574Z,30.80
2018-08-04T16:18:01.615Z,30.70
2018-08-04T16:20:32.185Z,31.20
2018-08-04T16:23:15.511Z,31.70
2018-08-04T16:25:43.828Z,32.20
2018-08-04T16:28:12.286Z,33.00
2018-08-04T16:30:41.635Z,33.70
2018-08-04T16:33:10.029Z,34.60
2018-08-04T16:35:39.252Z,35.50
2018-08-04T16:38:08.181Z,36.60
2018-08-04T16:40:37.318Z,37.80
2018-08-04T16:43:07.004Z,38.70
2018-08-04T16:45:36.116Z,39.50
2018-08-04T16:48:04.609Z,40.10
2018-08-04T16:50:33.007Z,40.70
2018-08-04T16:53:01.410Z,41.10
2018-08-04T16:55:29.983Z,41.50
2018-08-04T16:58:01.060Z,42.00
2018-08-04T17:00:33.331Z,42.60
2018-08-04T17:03:02.970Z,43.30
2018-08-04T17:05:31.483Z,43.10
2018-08-04T17:08:00.918Z,43.30
2018-08-04T17:10:29.187Z,43.60
2018-08-04T17:12:58.559Z,43.90
2018-08-04T17:15:26.875Z,44.30
2018-08-04T17:17:55.499Z,44.40
2018-08-04T17:20:24.753Z,44.80
2018-08-04T17:22:54.193Z,45.00
2018-08-04T17:25:23.403Z,45.40
2018-08-04T17:27:51.968Z,45.60
2018-08-04T17:32:49.558Z,45.60
2018-08-04T17:35:22.157Z,45.70
2018-08-04T17:37:50.824Z,46.00
2018-08-04T17:40:19.217Z,46.10
2018-08-04T17:42:52.842Z,46.40
2018-08-04T17:45:21.965Z,46.70
2018-08-04T17:47:50.320Z,46.90
2018-08-04T17:50:18.927Z,47.20
2018-08-04T17:52:51.786Z,47.50
2018-08-04T17:55:20.097Z,47.60
2018-08-04T17:57:49.894Z,47.70
2018-08-04T18:00:19.383Z,48.50
2018-08-04T18:02:47.932Z,48.10
2018-08-04T18:05:26.404Z,48.10
2018-08-04T18:07:55.233Z,48.30
2018-08-04T18:10:28.811Z,48.20
2018-08-04T18:12:57.947Z,48.20
2018-08-04T18:15:26.730Z,48.20
2018-08-04T18:17:55.977Z,47.90
2018-08-04T18:20:24.792Z,48.10
2018-08-04T18:22:53.991Z,48.30
2018-08-04T18:25:22.605Z,48.40
2018-08-04T18:27:51.024Z,48.40
2018-08-04T18:30:20.958Z,48.60
2018-08-04T18:32:50.868Z,48.50
2018-08-04T18:35:19.610Z,48.30
2018-08-04T18:37:49.884Z,48.20
2018-08-04T18:40:18.253Z,48.30
2018-08-04T18:42:49.913Z,48.40
2018-08-04T18:45:18.870Z,48.80
2018-08-04T18:47:47.435Z,49.10
2018-08-04T18:50:15.806Z,49.30
2018-08-04T18:52:49.557Z,49.30
2018-08-04T18:55:28.419Z,49.10
2018-08-04T18:57:57.005Z,48.80
2018-08-04T19:00:25.793Z,48.80
2018-08-04T19:02:54.210Z,49.20
2018-08-04T19:05:23.383Z,49.50
2018-08-04T19:07:55.069Z,49.80
2018-08-04T19:10:24.337Z,50.00
2018-08-04T19:15:21.607Z,50.50
2018-08-04T19:17:50.392Z,50.50
2018-08-04T19:20:18.787Z,50.50
2018-08-04T19:22:47.998Z,51.00
2018-08-04T19:25:16.423Z,51.20
2018-08-04T19:30:14.018Z,51.40
2018-08-04T19:32:42.515Z,51.30
2018-08-04T19:35:11.220Z,51.50
2018-08-04T19:37:39.788Z,51.70
2018-08-04T19:40:08.030Z,51.90
2018-08-04T19:42:36.555Z,52.00
2018-08-04T19:45:05.119Z,51.80
2018-08-04T19:47:34.592Z,51.60
2018-08-04T19:50:02.935Z,51.50
2018-08-04T19:52:32.240Z,51.30
2018-08-04T19:55:00.628Z,51.10
2018-08-04T19:59:57.004Z,51.60
2018-08-04T20:02:27.184Z,51.40
2018-08-04T20:04:56.041Z,51.50
2018-08-04T20:07:24.311Z,51.50
2018-08-04T20:09:52.597Z,51.50
2018-08-04T20:12:20.986Z,51.60
2018-08-04T20:15:04.120Z,51.80
2018-08-04T20:17:32.477Z,51.80
2018-08-04T20:20:01.191Z,51.80
2018-08-04T20:22:32.507Z,51.90
2018-08-04T20:25:08.120Z,51.90
2018-08-04T20:27:36.498Z,51.80
2018-08-04T20:30:04.861Z,51.60
2018-08-04T20:32:33.266Z,52.00
2018-08-04T20:35:01.838Z,52.20
2018-08-04T20:37:30.054Z,52.10
2018-08-04T20:39:58.278Z,52.10
2018-08-04T20:42:26.511Z,52.10
2018-08-04T20:44:55.002Z,52.10
2018-08-04T20:47:23.215Z,52.00
2018-08-04T20:49:51.506Z,51.80
2018-08-04T20:52:19.863Z,51.50
2018-08-04T20:57:16.323Z,51.00
2018-08-04T20:59:44.614Z,51.00
2018-08-04T21:02:12.955Z,51.30
2018-08-04T21:07:09.231Z,51.50
2018-08-04T21:09:38.039Z,51.50
2018-08-04T21:12:06.510Z,51.70
2018-08-04T21:14:42.354Z,51.70
2018-08-04T21:17:10.679Z,51.60
2018-08-04T21:19:38.920Z,51.60
2018-08-04T21:22:08.194Z,51.70
2018-08-04T21:24:39.064Z,51.70
2018-08-04T21:27:12.509Z,51.80
2018-08-04T21:29:45.907Z,51.80
2018-08-04T21:32:15.378Z,51.90
2018-08-04T21:34:44.370Z,52.00
2018-08-04T21:37:13.184Z,51.90
2018-08-04T21:39:43.548Z,52.00
2018-08-04T21:42:11.990Z,52.00
2018-08-04T21:44:40.519Z,52.00
2018-08-04T21:47:09.688Z,52.10
2018-08-04T21:52:08.523Z,52.80
2018-08-04T21:54:40.635Z,52.90
2018-08-04T21:57:10.712Z,53.20
2018-08-04T21:59:39.863Z,53.50
2018-08-04T22:02:09.594Z,53.90
2018-08-04T22:04:39.118Z,55.20
2018-08-04T22:07:46.256Z,55.50
2018-08-04T22:10:15.167Z,55.50
2018-08-04T22:12:45.846Z,55.40
2018-08-04T22:15:15.501Z,55.30
2018-08-04T22:17:46.131Z,55.30
2018-08-04T22:20:19.368Z,55.20
2018-08-04T22:22:47.979Z,55.00
2018-08-04T22:25:25.261Z,54.90
2018-08-04T22:27:54.807Z,54.80
2018-08-04T22:30:25.578Z,54.80
2018-08-04T22:32:55.200Z,55.30
2018-08-04T22:35:24.068Z,56.50
2018-08-04T22:37:53.449Z,57.30
2018-08-04T22:40:23.642Z,58.20
2018-08-04T22:42:52.573Z,58.40
2018-08-04T22:45:47.136Z,58.40
2018-08-04T22:48:15.502Z,58.40
2018-08-04T22:50:43.923Z,57.70
2018-08-04T22:53:12.518Z,57.00
2018-08-04T22:55:41.898Z,56.50
2018-08-04T22:58:11.442Z,56.60
2018-08-04T23:00:41.006Z,56.80
2018-08-04T23:03:14.783Z,57.10
2018-08-04T23:05:43.723Z,57.10
2018-08-04T23:10:42.803Z,57.20
2018-08-04T23:13:11.799Z,56.60
2018-08-04T23:15:40.666Z,56.10
2018-08-04T23:18:09.427Z,55.80
2018-08-04T23:23:07.718Z,55.10
2018-08-04T23:25:50.190Z,54.90
2018-08-04T23:28:20.760Z,54.60
2018-08-04T23:30:49.179Z,54.20
2018-08-04T23:33:17.676Z,53.90
2018-08-04T23:35:46.217Z,53.90
2018-08-04T23:38:14.890Z,54.10
2018-08-04T23:43:37.233Z,54.10
2018-08-04T23:46:17.160Z,54.00
2018-08-04T23:48:56.518Z,53.70
2018-08-04T23:57:15.362Z,52.70
